sensor_id;sensor_type;location;lat;lon;timestamp;pressure;altitude;pressure_sealevel;temperature;humidity
57885;BME280;43703;51.060;-0.086;2022-11-20T00:01:58;99781.76;;;4.50;65.52
57885;BME280;43703;51.060;-0.086;2022-11-20T00:04:23;99781.77;;;3.91;66.09
57885;BME280;43703;51.060;-0.086;2022-11-20T00:06:49;99777.91;;;3.85;67.65
57885;BME280;43703;51.060;-0.086;2022-11-20T00:09:14;99777.51;;;4.03;66.70
57885;BME280;43703;51.060;-0.086;2022-11-20T00:11:39;99771.92;;;3.00;69.22
57885;BME280;43703;51.060;-0.086;2022-11-20T00:14:05;99768.34;;;3.09;70.62
57885;BME280;43703;51.060;-0.086;2022-11-20T00:16:32;99764.54;;;2.82;71.38
57885;BME280;43703;51.060;-0.086;2022-11-20T00:18:55;99767.38;;;3.00;70.98
57885;BME280;43703;51.060;-0.086;2022-11-20T00:21:23;99765.42;;;3.07;71.82
57885;BME280;43703;51.060;-0.086;2022-11-20T00:23:47;99764.24;;;2.83;71.78
57885;BME280;43703;51.060;-0.086;2022-11-20T00:26:15;99760.67;;;3.18;71.79
57885;BME280;43703;51.060;-0.086;2022-11-20T00:28:38;99758.57;;;2.84;70.71
57885;BME280;43703;51.060;-0.086;2022-11-20T00:31:06;99760.33;;;2.56;72.74
57885;BME280;43703;51.060;-0.086;2022-11-20T00:33:29;99756.49;;;2.61;72.87
57885;BME280;43703;51.060;-0.086;2022-11-20T00:35:59;99750.45;;;2.82;72.28
57885;BME280;43703;51.060;-0.086;2022-11-20T00:38:20;99750.34;;;2.71;72.98
57885;BME280;43703;51.060;-0.086;2022-11-20T00:40:46;99743.95;;;2.71;73.37
57885;BME280;43703;51.060;-0.086;2022-11-20T00:43:11;99738.64;;;2.78;72.77
57885;BME280;43703;51.060;-0.086;2022-11-20T00:45:37;99731.54;;;2.94;73.23
57885;BME280;43703;51.060;-0.086;2022-11-20T00:48:02;99729.83;;;3.03;72.40
57885;BME280;43703;51.060;-0.086;2022-11-20T00:50:27;99726.63;;;2.73;73.18
57885;BME280;43703;51.060;-0.086;2022-11-20T00:52:53;99724.14;;;3.38;72.05
57885;BME280;43703;51.060;-0.086;2022-11-20T00:55:19;99719.70;;;3.15;72.44
57885;BME280;43703;51.060;-0.086;2022-11-20T00:57:44;99715.24;;;2.91;73.21
57885;BME280;43703;51.060;-0.086;2022-11-20T01:00:10;99718.07;;;3.08;72.23
57885;BME280;43703;51.060;-0.086;2022-11-20T01:02:35;99719.92;;;3.14;72.14
57885;BME280;43703;51.060;-0.086;2022-11-20T01:05:01;99717.18;;;2.97;72.04
57885;BME280;43703;51.060;-0.086;2022-11-20T01:07:26;99713.40;;;3.27;71.39
57885;BME280;43703;51.060;-0.086;2022-11-20T01:09:51;99708.66;;;3.31;71.59
57885;BME280;43703;51.060;-0.086;2022-11-20T01:12:17;99710.67;;;3.67;71.18
57885;BME280;43703;51.060;-0.086;2022-11-20T01:14:42;99707.28;;;3.21;71.32
57885;BME280;43703;51.060;-0.086;2022-11-20T01:17:07;99703.00;;;3.49;71.02
57885;BME280;43703;51.060;-0.086;2022-11-20T01:19:33;99702.20;;;3.45;71.31
57885;BME280;43703;51.060;-0.086;2022-11-20T01:21:58;99698.10;;;3.56;70.37
57885;BME280;43703;51.060;-0.086;2022-11-20T01:24:23;99693.92;;;3.35;70.72
57885;BME280;43703;51.060;-0.086;2022-11-20T01:26:50;99694.43;;;3.35;71.19
57885;BME280;43703;51.060;-0.086;2022-11-20T01:29:15;99693.89;;;3.46;70.20
57885;BME280;43703;51.060;-0.086;2022-11-20T01:31:39;99692.21;;;3.58;69.51
57885;BME280;43703;51.060;-0.086;2022-11-20T01:34:08;99694.83;;;4.44;68.19
57885;BME280;43703;51.060;-0.086;2022-11-20T01:36:31;99688.45;;;5.41;65.00
57885;BME280;43703;51.060;-0.086;2022-11-20T01:38:58;99682.58;;;4.24;66.71
57885;BME280;43703;51.060;-0.086;2022-11-20T01:41:23;99680.21;;;3.68;68.58
57885;BME280;43703;51.060;-0.086;2022-11-20T01:43:46;99679.26;;;3.75;69.22
57885;BME280;43703;51.060;-0.086;2022-11-20T01:46:15;99675.26;;;3.50;70.18
57885;BME280;43703;51.060;-0.086;2022-11-20T01:48:40;99664.51;;;3.96;70.10
57885;BME280;43703;51.060;-0.086;2022-11-20T01:51:04;99661.54;;;3.67;69.61
57885;BME280;43703;51.060;-0.086;2022-11-20T01:53:30;99654.76;;;3.55;70.04
57885;BME280;43703;51.060;-0.086;2022-11-20T01:55:55;99650.81;;;3.64;69.98
57885;BME280;43703;51.060;-0.086;2022-11-20T01:58:21;99645.55;;;3.98;69.32
57885;BME280;43703;51.060;-0.086;2022-11-20T02:00:43;99642.90;;;3.87;68.87
57885;BME280;43703;51.060;-0.086;2022-11-20T02:03:12;99640.94;;;3.75;68.95
57885;BME280;43703;51.060;-0.086;2022-11-20T02:05:36;99639.18;;;3.67;68.55
57885;BME280;43703;51.060;-0.086;2022-11-20T02:08:00;99633.29;;;4.01;67.03
57885;BME280;43703;51.060;-0.086;2022-11-20T02:10:26;99634.46;;;4.19;67.24
57885;BME280;43703;51.060;-0.086;2022-11-20T02:12:50;99628.33;;;3.61;68.76
57885;BME280;43703;51.060;-0.086;2022-11-20T02:15:15;99626.17;;;4.50;68.20
57885;BME280;43703;51.060;-0.086;2022-11-20T02:17:40;99631.18;;;5.25;65.20
57885;BME280;43703;51.060;-0.086;2022-11-20T02:20:07;99626.78;;;5.37;64.02
57885;BME280;43703;51.060;-0.086;2022-11-20T02:22:37;99624.26;;;5.77;63.52
57885;BME280;43703;51.060;-0.086;2022-11-20T02:24:57;99622.95;;;5.15;64.27
57885;BME280;43703;51.060;-0.086;2022-11-20T02:27:21;99623.80;;;5.64;63.48
57885;BME280;43703;51.060;-0.086;2022-11-20T02:29:49;99623.06;;;6.11;61.97
57885;BME280;43703;51.060;-0.086;2022-11-20T02:32:18;99618.81;;;5.64;63.63
57885;BME280;43703;51.060;-0.086;2022-11-20T02:34:37;99611.06;;;5.20;65.23
57885;BME280;43703;51.060;-0.086;2022-11-20T02:37:03;99607.16;;;4.20;67.57
57885;BME280;43703;51.060;-0.086;2022-11-20T02:39:28;99602.92;;;4.45;67.99
57885;BME280;43703;51.060;-0.086;2022-11-20T02:41:53;99603.79;;;3.71;68.88
57885;BME280;43703;51.060;-0.086;2022-11-20T02:44:18;99600.66;;;3.17;71.26
57885;BME280;43703;51.060;-0.086;2022-11-20T02:46:44;99594.43;;;4.75;69.77
57885;BME280;43703;51.060;-0.086;2022-11-20T02:49:09;99587.96;;;4.97;67.32
57885;BME280;43703;51.060;-0.086;2022-11-20T02:51:34;99581.63;;;5.47;65.90
57885;BME280;43703;51.060;-0.086;2022-11-20T02:53:59;99578.63;;;5.90;64.37
57885;BME280;43703;51.060;-0.086;2022-11-20T02:56:24;99581.34;;;5.09;66.50
57885;BME280;43703;51.060;-0.086;2022-11-20T02:58:49;99576.09;;;3.75;69.71
57885;BME280;43703;51.060;-0.086;2022-11-20T03:01:14;99569.37;;;4.49;67.04
57885;BME280;43703;51.060;-0.086;2022-11-20T03:03:40;99563.40;;;4.02;68.89
57885;BME280;43703;51.060;-0.086;2022-11-20T03:06:05;99557.28;;;4.40;68.37
57885;BME280;43703;51.060;-0.086;2022-11-20T03:08:30;99558.53;;;4.58;68.88
57885;BME280;43703;51.060;-0.086;2022-11-20T03:10:55;99557.12;;;4.17;69.25
57885;BME280;43703;51.060;-0.086;2022-11-20T03:13:20;99549.88;;;5.11;68.08
57885;BME280;43703;51.060;-0.086;2022-11-20T03:15:45;99546.60;;;4.04;69.78
57885;BME280;43703;51.060;-0.086;2022-11-20T03:18:11;99539.42;;;4.17;69.97
57885;BME280;43703;51.060;-0.086;2022-11-20T03:20:36;99534.66;;;4.12;69.40
57885;BME280;43703;51.060;-0.086;2022-11-20T03:23:02;99531.35;;;3.84;70.84
57885;BME280;43703;51.060;-0.086;2022-11-20T03:25:27;99520.46;;;4.44;68.35
57885;BME280;43703;51.060;-0.086;2022-11-20T03:27:53;99520.59;;;3.70;71.91
57885;BME280;43703;51.060;-0.086;2022-11-20T03:30:18;99515.84;;;4.21;71.27
57885;BME280;43703;51.060;-0.086;2022-11-20T03:32:43;99515.67;;;4.29;70.20
57885;BME280;43703;51.060;-0.086;2022-11-20T03:35:09;99516.72;;;3.19;73.78
57885;BME280;43703;51.060;-0.086;2022-11-20T03:37:34;99507.60;;;4.31;71.37
57885;BME280;43703;51.060;-0.086;2022-11-20T03:39:59;99505.31;;;4.06;71.73
57885;BME280;43703;51.060;-0.086;2022-11-20T03:42:24;99501.80;;;5.67;68.66
57885;BME280;43703;51.060;-0.086;2022-11-20T03:44:49;99498.42;;;3.81;71.13
57885;BME280;43703;51.060;-0.086;2022-11-20T03:47:14;99495.63;;;4.12;70.86
57885;BME280;43703;51.060;-0.086;2022-11-20T03:49:39;99489.58;;;4.51;70.48
57885;BME280;43703;51.060;-0.086;2022-11-20T03:52:05;99486.68;;;3.87;71.31
57885;BME280;43703;51.060;-0.086;2022-11-20T03:54:30;99474.70;;;4.00;71.95
57885;BME280;43703;51.060;-0.086;2022-11-20T03:56:55;99470.18;;;4.10;70.94
57885;BME280;43703;51.060;-0.086;2022-11-20T03:59:20;99472.55;;;4.74;69.31
57885;BME280;43703;51.060;-0.086;2022-11-20T04:01:45;99470.14;;;5.21;69.13
57885;BME280;43703;51.060;-0.086;2022-11-20T04:04:10;99465.21;;;4.02;71.54
57885;BME280;43703;51.060;-0.086;2022-11-20T04:06:37;99462.08;;;3.98;72.40
57885;BME280;43703;51.060;-0.086;2022-11-20T04:09:01;99464.08;;;4.15;72.82
57885;BME280;43703;51.060;-0.086;2022-11-20T04:11:28;99463.52;;;4.16;72.66
57885;BME280;43703;51.060;-0.086;2022-11-20T04:13:53;99463.01;;;3.99;72.96
57885;BME280;43703;51.060;-0.086;2022-11-20T04:16:18;99460.72;;;4.71;72.05
57885;BME280;43703;51.060;-0.086;2022-11-20T04:18:43;99454.11;;;4.59;71.55
57885;BME280;43703;51.060;-0.086;2022-11-20T04:21:08;99446.97;;;4.39;71.94
57885;BME280;43703;51.060;-0.086;2022-11-20T04:23:33;99446.61;;;4.64;71.87
57885;BME280;43703;51.060;-0.086;2022-11-20T04:26:01;99444.68;;;4.90;71.54
57885;BME280;43703;51.060;-0.086;2022-11-20T04:28:23;99440.72;;;4.50;72.59
57885;BME280;43703;51.060;-0.086;2022-11-20T04:30:48;99438.67;;;4.04;72.71
57885;BME280;43703;51.060;-0.086;2022-11-20T04:33:13;99436.71;;;4.32;73.28
57885;BME280;43703;51.060;-0.086;2022-11-20T04:35:38;99438.11;;;4.63;72.09
57885;BME280;43703;51.060;-0.086;2022-11-20T04:38:04;99437.68;;;4.34;73.02
57885;BME280;43703;51.060;-0.086;2022-11-20T04:40:29;99440.59;;;4.32;73.66
57885;BME280;43703;51.060;-0.086;2022-11-20T04:42:55;99444.37;;;5.15;72.16
57885;BME280;43703;51.060;-0.086;2022-11-20T04:45:19;99442.85;;;5.41;72.01
57885;BME280;43703;51.060;-0.086;2022-11-20T04:47:44;99436.86;;;4.60;73.19
57885;BME280;43703;51.060;-0.086;2022-11-20T04:50:09;99440.06;;;5.07;70.91
57885;BME280;43703;51.060;-0.086;2022-11-20T04:52:35;99438.01;;;4.75;72.13
57885;BME280;43703;51.060;-0.086;2022-11-20T04:55:00;99431.18;;;4.67;73.04
57885;BME280;43703;51.060;-0.086;2022-11-20T04:57:25;99424.23;;;5.73;71.85
57885;BME280;43703;51.060;-0.086;2022-11-20T04:59:50;99420.72;;;5.27;70.84
57885;BME280;43703;51.060;-0.086;2022-11-20T05:02:15;99418.28;;;5.04;72.21
57885;BME280;43703;51.060;-0.086;2022-11-20T05:04:40;99415.90;;;4.57;72.78
57885;BME280;43703;51.060;-0.086;2022-11-20T05:07:05;99416.86;;;5.21;72.43
57885;BME280;43703;51.060;-0.086;2022-11-20T05:09:31;99416.36;;;5.53;71.85
57885;BME280;43703;51.060;-0.086;2022-11-20T05:11:55;99410.61;;;6.38;68.54
57885;BME280;43703;51.060;-0.086;2022-11-20T05:14:20;99412.11;;;6.37;67.23
57885;BME280;43703;51.060;-0.086;2022-11-20T05:16:45;99407.69;;;7.06;64.99
57885;BME280;43703;51.060;-0.086;2022-11-20T05:19:10;99403.51;;;6.73;67.42
57885;BME280;43703;51.060;-0.086;2022-11-20T05:21:35;99393.87;;;7.19;66.37
57885;BME280;43703;51.060;-0.086;2022-11-20T05:24:00;99386.85;;;6.36;67.90
57885;BME280;43703;51.060;-0.086;2022-11-20T05:26:25;99382.67;;;6.54;68.60
57885;BME280;43703;51.060;-0.086;2022-11-20T05:28:51;99375.29;;;5.81;70.54
57885;BME280;43703;51.060;-0.086;2022-11-20T05:31:18;99370.81;;;6.49;68.02
57885;BME280;43703;51.060;-0.086;2022-11-20T05:33:41;99368.63;;;6.34;67.92
57885;BME280;43703;51.060;-0.086;2022-11-20T05:36:07;99363.42;;;6.87;67.89
57885;BME280;43703;51.060;-0.086;2022-11-20T05:38:31;99357.29;;;6.74;67.73
57885;BME280;43703;51.060;-0.086;2022-11-20T05:41:04;99353.01;;;7.37;65.45
57885;BME280;43703;51.060;-0.086;2022-11-20T05:43:21;99354.83;;;6.55;67.77
57885;BME280;43703;51.060;-0.086;2022-11-20T05:45:52;99354.71;;;6.50;68.74
57885;BME280;43703;51.060;-0.086;2022-11-20T05:48:12;99346.12;;;6.60;68.55
57885;BME280;43703;51.060;-0.086;2022-11-20T05:50:37;99340.68;;;6.80;67.55
57885;BME280;43703;51.060;-0.086;2022-11-20T05:53:03;99339.34;;;6.42;69.47
57885;BME280;43703;51.060;-0.086;2022-11-20T05:55:28;99332.58;;;6.81;68.09
57885;BME280;43703;51.060;-0.086;2022-11-20T05:57:53;99331.01;;;5.94;70.22
57885;BME280;43703;51.060;-0.086;2022-11-20T06:00:18;99323.37;;;7.60;66.89
57885;BME280;43703;51.060;-0.086;2022-11-20T06:02:43;99328.56;;;6.12;70.59
57885;BME280;43703;51.060;-0.086;2022-11-20T06:05:08;99325.01;;;5.91;70.45
57885;BME280;43703;51.060;-0.086;2022-11-20T06:07:33;99318.49;;;6.63;70.96
57885;BME280;43703;51.060;-0.086;2022-11-20T06:09:58;99322.17;;;6.64;69.93
57885;BME280;43703;51.060;-0.086;2022-11-20T06:12:23;99319.63;;;6.98;69.68
57885;BME280;43703;51.060;-0.086;2022-11-20T06:14:48;99320.18;;;6.09;71.51
57885;BME280;43703;51.060;-0.086;2022-11-20T06:17:14;99318.38;;;6.15;71.63
57885;BME280;43703;51.060;-0.086;2022-11-20T06:19:39;99311.16;;;6.67;70.77
57885;BME280;43703;51.060;-0.086;2022-11-20T06:22:04;99305.14;;;7.65;68.28
57885;BME280;43703;51.060;-0.086;2022-11-20T06:24:29;99301.78;;;8.11;66.17
57885;BME280;43703;51.060;-0.086;2022-11-20T06:26:54;99298.98;;;7.46;68.38
57885;BME280;43703;51.060;-0.086;2022-11-20T06:29:19;99290.09;;;7.74;67.56
57885;BME280;43703;51.060;-0.086;2022-11-20T06:31:44;99286.23;;;7.11;69.60
57885;BME280;43703;51.060;-0.086;2022-11-20T06:34:09;99290.31;;;6.39;71.24
57885;BME280;43703;51.060;-0.086;2022-11-20T06:36:35;99284.30;;;6.71;71.09
57885;BME280;43703;51.060;-0.086;2022-11-20T06:39:00;99278.95;;;7.43;69.16
57885;BME280;43703;51.060;-0.086;2022-11-20T06:41:25;99274.01;;;6.90;70.64
57885;BME280;43703;51.060;-0.086;2022-11-20T06:43:50;99265.72;;;7.46;68.59
57885;BME280;43703;51.060;-0.086;2022-11-20T06:46:16;99264.61;;;6.48;71.77
57885;BME280;43703;51.060;-0.086;2022-11-20T06:48:40;99256.56;;;6.79;71.14
57885;BME280;43703;51.060;-0.086;2022-11-20T06:51:06;99255.39;;;6.95;71.70
57885;BME280;43703;51.060;-0.086;2022-11-20T06:53:30;99250.42;;;7.12;71.14
57885;BME280;43703;51.060;-0.086;2022-11-20T06:55:56;99248.96;;;7.21;70.97
57885;BME280;43703;51.060;-0.086;2022-11-20T06:58:20;99244.08;;;6.80;72.50
57885;BME280;43703;51.060;-0.086;2022-11-20T07:00:45;99239.39;;;8.17;68.37
57885;BME280;43703;51.060;-0.086;2022-11-20T07:03:11;99231.36;;;7.96;69.28
57885;BME280;43703;51.060;-0.086;2022-11-20T07:05:35;99230.63;;;7.27;71.23
57885;BME280;43703;51.060;-0.086;2022-11-20T07:08:00;99223.89;;;7.79;70.22
57885;BME280;43703;51.060;-0.086;2022-11-20T07:10:25;99221.46;;;7.82;69.71
57885;BME280;43703;51.060;-0.086;2022-11-20T07:12:51;99217.00;;;8.15;69.24
57885;BME280;43703;51.060;-0.086;2022-11-20T07:15:15;99210.36;;;7.52;71.92
57885;BME280;43703;51.060;-0.086;2022-11-20T07:17:40;99206.39;;;7.17;73.08
57885;BME280;43703;51.060;-0.086;2022-11-20T07:20:06;99206.21;;;8.36;69.88
57885;BME280;43703;51.060;-0.086;2022-11-20T07:22:30;99201.94;;;6.43;75.25
57885;BME280;43703;51.060;-0.086;2022-11-20T07:24:55;99194.16;;;8.24;70.01
57885;BME280;43703;51.060;-0.086;2022-11-20T07:27:20;99192.72;;;8.08;70.84
57885;BME280;43703;51.060;-0.086;2022-11-20T07:29:45;99186.39;;;7.91;71.19
57885;BME280;43703;51.060;-0.086;2022-11-20T07:32:10;99177.95;;;8.14;71.26
57885;BME280;43703;51.060;-0.086;2022-11-20T07:34:35;99163.45;;;8.71;68.69
57885;BME280;43703;51.060;-0.086;2022-11-20T07:37:00;99159.90;;;8.16;70.67
57885;BME280;43703;51.060;-0.086;2022-11-20T07:39:25;99160.20;;;8.59;70.29
57885;BME280;43703;51.060;-0.086;2022-11-20T07:41:50;99158.63;;;8.84;69.60
57885;BME280;43703;51.060;-0.086;2022-11-20T07:44:15;99158.73;;;8.48;70.25
57885;BME280;43703;51.060;-0.086;2022-11-20T07:46:40;99150.66;;;8.34;71.53
57885;BME280;43703;51.060;-0.086;2022-11-20T07:49:05;99154.38;;;8.18;72.34
57885;BME280;43703;51.060;-0.086;2022-11-20T07:51:31;99154.69;;;7.91;73.13
57885;BME280;43703;51.060;-0.086;2022-11-20T07:53:55;99152.50;;;7.81;73.99
57885;BME280;43703;51.060;-0.086;2022-11-20T07:56:20;99148.46;;;7.22;77.22
57885;BME280;43703;51.060;-0.086;2022-11-20T07:58:45;99147.23;;;7.62;78.15
57885;BME280;43703;51.060;-0.086;2022-11-20T08:01:10;99185.35;;;7.57;78.01
57885;BME280;43703;51.060;-0.086;2022-11-20T08:03:36;99196.07;;;7.42;76.55
57885;BME280;43703;51.060;-0.086;2022-11-20T08:06:02;99191.92;;;7.18;76.43
57885;BME280;43703;51.060;-0.086;2022-11-20T08:08:28;99183.21;;;7.19;73.19
57885;BME280;43703;51.060;-0.086;2022-11-20T08:10:52;99191.42;;;8.33;70.00
57885;BME280;43703;51.060;-0.086;2022-11-20T08:13:18;99199.26;;;7.37;71.73
57885;BME280;43703;51.060;-0.086;2022-11-20T08:15:48;99204.04;;;7.96;71.57
57885;BME280;43703;51.060;-0.086;2022-11-20T08:18:11;99213.79;;;7.14;72.13
57885;BME280;43703;51.060;-0.086;2022-11-20T08:20:35;99219.05;;;7.78;71.86
57885;BME280;43703;51.060;-0.086;2022-11-20T08:23:03;99217.22;;;8.79;68.56
57885;BME280;43703;51.060;-0.086;2022-11-20T08:25:28;99222.34;;;8.61;69.35
57885;BME280;43703;51.060;-0.086;2022-11-20T08:27:53;99228.64;;;8.93;67.39
57885;BME280;43703;51.060;-0.086;2022-11-20T08:30:19;99231.18;;;8.71;67.18
57885;BME280;43703;51.060;-0.086;2022-11-20T08:32:45;99233.83;;;8.61;67.53
57885;BME280;43703;51.060;-0.086;2022-11-20T08:35:11;99239.47;;;8.16;68.60
57885;BME280;43703;51.060;-0.086;2022-11-20T08:37:36;99238.89;;;8.31;69.09
57885;BME280;43703;51.060;-0.086;2022-11-20T08:40:02;99243.86;;;7.76;69.11
57885;BME280;43703;51.060;-0.086;2022-11-20T08:42:26;99248.60;;;8.37;67.85
57885;BME280;43703;51.060;-0.086;2022-11-20T08:44:52;99256.25;;;7.96;69.40
57885;BME280;43703;51.060;-0.086;2022-11-20T08:47:16;99260.14;;;8.18;69.69
57885;BME280;43703;51.060;-0.086;2022-11-20T08:49:42;99260.86;;;7.98;69.57
57885;BME280;43703;51.060;-0.086;2022-11-20T08:52:07;99259.11;;;7.85;69.99
57885;BME280;43703;51.060;-0.086;2022-11-20T08:54:32;99264.92;;;7.75;69.85
57885;BME280;43703;51.060;-0.086;2022-11-20T08:56:57;99272.03;;;8.03;70.05
57885;BME280;43703;51.060;-0.086;2022-11-20T08:59:22;99278.40;;;8.02;69.54
57885;BME280;43703;51.060;-0.086;2022-11-20T09:01:47;99283.70;;;6.82;74.29
57885;BME280;43703;51.060;-0.086;2022-11-20T09:04:12;99285.81;;;7.23;75.09
57885;BME280;43703;51.060;-0.086;2022-11-20T09:06:37;99304.26;;;6.12;77.21
57885;BME280;43703;51.060;-0.086;2022-11-20T09:09:02;99307.74;;;7.59;73.83
57885;BME280;43703;51.060;-0.086;2022-11-20T09:11:27;99308.73;;;8.79;74.72
57885;BME280;43703;51.060;-0.086;2022-11-20T09:13:52;99317.56;;;8.22;75.01
57885;BME280;43703;51.060;-0.086;2022-11-20T09:16:17;99322.20;;;8.84;69.84
57885;BME280;43703;51.060;-0.086;2022-11-20T09:18:43;99327.21;;;8.97;67.82
57885;BME280;43703;51.060;-0.086;2022-11-20T09:21:10;99327.69;;;7.07;71.75
57885;BME280;43703;51.060;-0.086;2022-11-20T09:23:34;99333.93;;;8.51;71.69
57885;BME280;43703;51.060;-0.086;2022-11-20T09:25:58;99324.18;;;9.46;69.24
57885;BME280;43703;51.060;-0.086;2022-11-20T09:28:23;99322.44;;;10.11;66.98
57885;BME280;43703;51.060;-0.086;2022-11-20T09:30:48;99316.04;;;10.55;65.07
57885;BME280;43703;51.060;-0.086;2022-11-20T09:33:13;99325.89;;;10.13;63.94
57885;BME280;43703;51.060;-0.086;2022-11-20T09:35:38;99333.86;;;9.31;64.11
57885;BME280;43703;51.060;-0.086;2022-11-20T09:38:05;99340.48;;;8.08;66.81
57885;BME280;43703;51.060;-0.086;2022-11-20T09:40:29;99335.93;;;8.67;64.83
57885;BME280;43703;51.060;-0.086;2022-11-20T09:42:57;99336.47;;;8.56;67.26
57885;BME280;43703;51.060;-0.086;2022-11-20T09:45:24;99344.98;;;7.42;70.60
57885;BME280;43703;51.060;-0.086;2022-11-20T09:47:53;99356.23;;;8.22;71.66
57885;BME280;43703;51.060;-0.086;2022-11-20T09:50:22;99346.75;;;8.40;71.42
57885;BME280;43703;51.060;-0.086;2022-11-20T09:52:41;99346.33;;;8.19;72.05
57885;BME280;43703;51.060;-0.086;2022-11-20T09:55:02;99346.25;;;8.58;69.96
57885;BME280;43703;51.060;-0.086;2022-11-20T09:57:28;99352.20;;;9.77;67.90
57885;BME280;43703;51.060;-0.086;2022-11-20T09:59:52;99353.71;;;10.51;65.67
57885;BME280;43703;51.060;-0.086;2022-11-20T10:02:19;99352.39;;;9.92;64.27
57885;BME280;43703;51.060;-0.086;2022-11-20T10:04:45;99343.63;;;11.09;62.28
57885;BME280;43703;51.060;-0.086;2022-11-20T10:07:15;99338.40;;;10.00;63.42
57885;BME280;43703;51.060;-0.086;2022-11-20T10:09:31;99334.44;;;9.98;63.37
57885;BME280;43703;51.060;-0.086;2022-11-20T10:12:05;99336.99;;;9.02;65.39
57885;BME280;43703;51.060;-0.086;2022-11-20T10:14:28;99337.67;;;9.06;65.32
57885;BME280;43703;51.060;-0.086;2022-11-20T10:16:51;99334.99;;;10.15;63.41
57885;BME280;43703;51.060;-0.086;2022-11-20T10:19:21;99336.66;;;10.59;60.98
57885;BME280;43703;51.060;-0.086;2022-11-20T10:21:41;99342.89;;;9.99;63.45
57885;BME280;43703;51.060;-0.086;2022-11-20T10:26:32;99348.58;;;8.86;67.90
57885;BME280;43703;51.060;-0.086;2022-11-20T10:29:00;99348.25;;;9.02;68.04
57885;BME280;43703;51.060;-0.086;2022-11-20T10:31:25;99346.63;;;8.17;70.10
57885;BME280;43703;51.060;-0.086;2022-11-20T10:33:42;99337.59;;;8.25;68.91
57885;BME280;43703;51.060;-0.086;2022-11-20T10:36:12;99338.71;;;9.54;66.65
57885;BME280;43703;51.060;-0.086;2022-11-20T10:38:35;99335.91;;;9.30;65.61
57885;BME280;43703;51.060;-0.086;2022-11-20T10:40:59;99336.39;;;8.56;68.04
57885;BME280;43703;51.060;-0.086;2022-11-20T10:43:26;99338.52;;;9.32;66.19
57885;BME280;43703;51.060;-0.086;2022-11-20T10:45:50;99342.16;;;8.67;67.90
57885;BME280;43703;51.060;-0.086;2022-11-20T10:48:16;99343.97;;;7.66;70.57
57885;BME280;43703;51.060;-0.086;2022-11-20T10:50:40;99346.14;;;7.53;68.93
57885;BME280;43703;51.060;-0.086;2022-11-20T10:53:08;99350.13;;;7.96;67.40
57885;BME280;43703;51.060;-0.086;2022-11-20T10:55:32;99358.15;;;7.65;70.69
57885;BME280;43703;51.060;-0.086;2022-11-20T10:57:56;99350.30;;;7.74;71.49
57885;BME280;43703;51.060;-0.086;2022-11-20T11:00:17;99346.43;;;8.54;68.99
57885;BME280;43703;51.060;-0.086;2022-11-20T11:02:45;99347.56;;;8.87;67.85
57885;BME280;43703;51.060;-0.086;2022-11-20T11:05:14;99344.77;;;8.00;67.29
57885;BME280;43703;51.060;-0.086;2022-11-20T11:07:35;99331.32;;;7.66;67.48
57885;BME280;43703;51.060;-0.086;2022-11-20T11:09:57;99348.48;;;7.07;70.72
57885;BME280;43703;51.060;-0.086;2022-11-20T11:12:25;99349.64;;;7.99;69.71
57885;BME280;43703;51.060;-0.086;2022-11-20T11:14:50;99349.86;;;7.35;69.95
57885;BME280;43703;51.060;-0.086;2022-11-20T11:17:22;99343.28;;;8.36;68.73
57885;BME280;43703;51.060;-0.086;2022-11-20T11:19:37;99345.42;;;7.78;69.57
57885;BME280;43703;51.060;-0.086;2022-11-20T11:22:09;99353.66;;;8.31;68.70
57885;BME280;43703;51.060;-0.086;2022-11-20T11:24:29;99347.37;;;8.55;66.93
57885;BME280;43703;51.060;-0.086;2022-11-20T11:26:56;99349.20;;;7.80;68.63
57885;BME280;43703;51.060;-0.086;2022-11-20T11:29:18;99352.65;;;6.95;70.77
57885;BME280;43703;51.060;-0.086;2022-11-20T11:31:43;99342.34;;;7.08;71.62
57885;BME280;43703;51.060;-0.086;2022-11-20T11:34:12;99347.44;;;8.17;69.54
57885;BME280;43703;51.060;-0.086;2022-11-20T11:36:34;99345.91;;;7.72;68.15
57885;BME280;43703;51.060;-0.086;2022-11-20T11:38:59;99351.20;;;8.54;68.09
57885;BME280;43703;51.060;-0.086;2022-11-20T11:41:29;99349.43;;;8.49;65.66
57885;BME280;43703;51.060;-0.086;2022-11-20T11:43:53;99349.70;;;8.26;67.49
57885;BME280;43703;51.060;-0.086;2022-11-20T11:48:40;99348.70;;;8.99;67.01
57885;BME280;43703;51.060;-0.086;2022-11-20T11:51:08;99352.28;;;10.38;63.76
57885;BME280;43703;51.060;-0.086;2022-11-20T11:53:30;99353.80;;;10.74;63.01
57885;BME280;43703;51.060;-0.086;2022-11-20T11:56:02;99342.32;;;9.43;61.96
57885;BME280;43703;51.060;-0.086;2022-11-20T11:58:32;99343.65;;;10.96;60.75
57885;BME280;43703;51.060;-0.086;2022-11-20T12:00:51;99349.06;;;9.74;60.12
57885;BME280;43703;51.060;-0.086;2022-11-20T12:03:15;99349.61;;;11.23;59.19
57885;BME280;43703;51.060;-0.086;2022-11-20T12:05:38;99348.80;;;9.33;60.72
57885;BME280;43703;51.060;-0.086;2022-11-20T12:08:03;99357.16;;;9.74;61.12
57885;BME280;43703;51.060;-0.086;2022-11-20T12:10:35;99351.21;;;10.49;60.06
57885;BME280;43703;51.060;-0.086;2022-11-20T12:12:53;99341.85;;;10.37;58.58
57885;BME280;43703;51.060;-0.086;2022-11-20T12:15:25;99348.39;;;10.90;56.64
57885;BME280;43703;51.060;-0.086;2022-11-20T12:17:41;99346.30;;;10.91;55.63
57885;BME280;43703;51.060;-0.086;2022-11-20T12:20:13;99344.82;;;11.79;53.00
57885;BME280;43703;51.060;-0.086;2022-11-20T12:22:39;99344.04;;;12.12;53.08
57885;BME280;43703;51.060;-0.086;2022-11-20T12:25:03;99341.49;;;13.05;53.87
57885;BME280;43703;51.060;-0.086;2022-11-20T12:29:53;99345.24;;;11.72;50.86
57885;BME280;43703;51.060;-0.086;2022-11-20T12:34:47;99340.10;;;13.51;50.97
57885;BME280;43703;51.060;-0.086;2022-11-20T12:37:12;99339.20;;;11.94;50.76
57885;BME280;43703;51.060;-0.086;2022-11-20T12:39:35;99341.82;;;10.93;52.98
57885;BME280;43703;51.060;-0.086;2022-11-20T12:42:09;99338.31;;;10.30;55.52
57885;BME280;43703;51.060;-0.086;2022-11-20T12:44:35;99337.99;;;9.37;56.15
57885;BME280;43703;51.060;-0.086;2022-11-20T12:47:05;99340.44;;;8.93;57.89
57885;BME280;43703;51.060;-0.086;2022-11-20T12:49:21;99338.56;;;8.57;58.74
57885;BME280;43703;51.060;-0.086;2022-11-20T12:51:52;99347.14;;;7.98;60.67
57885;BME280;43703;51.060;-0.086;2022-11-20T12:56:37;99348.01;;;8.52;58.74
57885;BME280;43703;51.060;-0.086;2022-11-20T12:59:02;99352.59;;;8.67;58.95
57885;BME280;43703;51.060;-0.086;2022-11-20T13:01:25;99351.50;;;7.20;62.05